sensor_id;sensor_type;location;lat;lon;timestamp;pressure;altitude;pressure_sealevel;temperature;humidity
65359;BME280;52491;45.900;6.346;2023-09-30T00:00:57;94632.31;;;27.28;37.45
65359;BME280;52491;45.900;6.346;2023-09-30T00:03:22;94627.50;;;27.30;37.51
65359;BME280;52491;45.900;6.346;2023-09-30T00:05:48;94628.31;;;27.30;37.38
65359;BME280;52491;45.900;6.346;2023-09-30T00:08:13;94630.19;;;27.30;37.40
65359;BME280;52491;45.900;6.346;2023-09-30T00:10:39;94624.81;;;27.30;37.45
65359;BME280;52491;45.900;6.346;2023-09-30T00:13:05;94632.31;;;27.28;37.55
65359;BME280;52491;45.900;6.346;2023-09-30T00:15:35;94623.75;;;27.31;37.44
65359;BME280;52491;45.900;6.346;2023-09-30T00:18:01;94621.06;;;27.31;37.33
65359;BME280;52491;45.900;6.346;2023-09-30T00:20:29;94621.06;;;27.31;37.55
65359;BME280;52491;45.900;6.346;2023-09-30T00:22:55;94618.16;;;27.32;37.19
65359;BME280;52491;45.900;6.346;2023-09-30T00:25:21;94618.16;;;27.32;37.37
65359;BME280;52491;45.900;6.346;2023-09-30T00:27:47;94606.88;;;27.30;37.23
65359;BME280;52491;45.900;6.346;2023-09-30T00:30:13;94614.66;;;27.32;36.84
65359;BME280;52491;45.900;6.346;2023-09-30T00:32:38;94618.16;;;27.32;37.10
65359;BME280;52491;45.900;6.346;2023-09-30T00:35:05;94608.75;;;27.30;37.10
65359;BME280;52491;45.900;6.346;2023-09-30T00:37:39;94620.28;;;27.35;37.20
65359;BME280;52491;45.900;6.346;2023-09-30T00:40:05;94613.88;;;27.31;37.16
65359;BME280;52491;45.900;6.346;2023-09-30T00:42:31;94617.91;;;27.34;37.05
65359;BME280;52491;45.900;6.346;2023-09-30T00:44:57;94618.69;;;27.34;37.17
65359;BME280;52491;45.900;6.346;2023-09-30T00:47:23;94620.81;;;27.32;37.21
65359;BME280;52491;45.900;6.346;2023-09-30T00:49:50;94620.56;;;27.29;37.35
65359;BME280;52491;45.900;6.346;2023-09-30T00:52:16;94619.75;;;27.28;37.12
65359;BME280;52491;45.900;6.346;2023-09-30T00:54:43;94623.47;;;27.27;37.08
65359;BME280;52491;45.900;6.346;2023-09-30T00:57:09;94622.69;;;27.27;37.17
65359;BME280;52491;45.900;6.346;2023-09-30T00:59:36;94621.88;;;27.26;37.27
65359;BME280;52491;45.900;6.346;2023-09-30T01:02:02;94624.56;;;27.26;37.18
65359;BME280;52491;45.900;6.346;2023-09-30T01:04:30;94621.06;;;27.26;37.01
65359;BME280;52491;45.900;6.346;2023-09-30T01:06:56;94616.97;;;27.13;37.35
65359;BME280;52491;45.900;6.346;2023-09-30T01:09:23;94617.25;;;27.11;37.24
65359;BME280;52491;45.900;6.346;2023-09-30T01:11:49;94615.38;;;27.12;37.36
65359;BME280;52491;45.900;6.346;2023-09-30T01:14:31;94621.53;;;27.12;37.19
65359;BME280;52491;45.900;6.346;2023-09-30T01:16:57;94628.22;;;27.10;37.30
65359;BME280;52491;45.900;6.346;2023-09-30T01:19:23;94630.88;;;27.10;37.29
65359;BME280;52491;45.900;6.346;2023-09-30T01:21:53;94627.97;;;27.11;37.33
65359;BME280;52491;45.900;6.346;2023-09-30T01:24:21;94629.81;;;27.11;37.41
65359;BME280;52491;45.900;6.346;2023-09-30T01:26:47;94631.69;;;27.10;37.27
65359;BME280;52491;45.900;6.346;2023-09-30T01:29:13;94625.53;;;27.10;37.19
65359;BME280;52491;45.900;6.346;2023-09-30T01:31:39;94629.81;;;27.11;37.24
65359;BME280;52491;45.900;6.346;2023-09-30T01:34:05;94624.44;;;27.11;37.31
65359;BME280;52491;45.900;6.346;2023-09-30T01:36:31;94627.13;;;27.11;37.31
65359;BME280;52491;45.900;6.346;2023-09-30T01:38:57;94627.41;;;27.09;37.39
65359;BME280;52491;45.900;6.346;2023-09-30T01:41:23;94620.50;;;27.18;37.22
65359;BME280;52491;45.900;6.346;2023-09-30T01:43:49;94628.03;;;27.27;36.92
65359;BME280;52491;45.900;6.346;2023-09-30T01:46:15;94624.00;;;27.24;37.08
65359;BME280;52491;45.900;6.346;2023-09-30T01:48:41;94622.41;;;27.23;37.05
65359;BME280;52491;45.900;6.346;2023-09-30T01:51:06;94615.72;;;27.26;36.95
65359;BME280;52491;45.900;6.346;2023-09-30T01:53:32;94615.19;;;27.29;36.78
65359;BME280;52491;45.900;6.346;2023-09-30T01:55:58;94616.00;;;27.29;36.96
65359;BME280;52491;45.900;6.346;2023-09-30T01:58:24;94616.78;;;27.30;36.77
65359;BME280;52491;45.900;6.346;2023-09-30T02:00:51;94613.03;;;27.31;36.61
65359;BME280;52491;45.900;6.346;2023-09-30T02:03:17;94604.22;;;27.30;36.68
65359;BME280;52491;45.900;6.346;2023-09-30T02:05:42;94607.16;;;27.29;36.75
65359;BME280;52491;45.900;6.346;2023-09-30T02:08:08;94599.94;;;27.29;36.78
65359;BME280;52491;45.900;6.346;2023-09-30T02:10:34;94605.28;;;27.29;36.78
65359;BME280;52491;45.900;6.346;2023-09-30T02:13:00;94605.28;;;27.29;36.85
65359;BME280;52491;45.900;6.346;2023-09-30T02:15:26;94598.34;;;27.28;36.90
65359;BME280;52491;45.900;6.346;2023-09-30T02:17:51;94598.03;;;27.25;36.58
65359;BME280;52491;45.900;6.346;2023-09-30T02:20:17;94599.09;;;27.23;36.65
65359;BME280;52491;45.900;6.346;2023-09-30T02:22:47;94600.72;;;27.25;36.82
65359;BME280;52491;45.900;6.346;2023-09-30T02:25:14;94606.34;;;27.23;36.90
65359;BME280;52491;45.900;6.346;2023-09-30T02:27:41;94605.25;;;27.24;36.62
65359;BME280;52491;45.900;6.346;2023-09-30T02:30:08;94599.91;;;27.24;36.75
65359;BME280;52491;45.900;6.346;2023-09-30T02:32:34;94601.78;;;27.23;36.80
65359;BME280;52491;45.900;6.346;2023-09-30T02:34:59;94601.25;;;27.21;36.82
65359;BME280;52491;45.900;6.346;2023-09-30T02:37:25;94599.34;;;27.22;36.79
65359;BME280;52491;45.900;6.346;2023-09-30T02:39:51;94588.66;;;27.22;37.03
65359;BME280;52491;45.900;6.346;2023-09-30T02:42:16;94597.50;;;27.22;36.76
65359;BME280;52491;45.900;6.346;2023-09-30T02:44:42;94595.63;;;27.23;36.69
65359;BME280;52491;45.900;6.346;2023-09-30T02:47:07;94585.97;;;27.22;36.69
65359;BME280;52491;45.900;6.346;2023-09-30T02:49:34;94588.06;;;27.15;36.82
65359;BME280;52491;45.900;6.346;2023-09-30T02:52:00;94593.41;;;27.10;37.02
65359;BME280;52491;45.900;6.346;2023-09-30T02:54:26;94603.56;;;27.08;36.79
65359;BME280;52491;45.900;6.346;2023-09-30T02:56:52;94610.00;;;27.07;37.12
65359;BME280;52491;45.900;6.346;2023-09-30T02:59:20;94607.31;;;27.07;37.10
65359;BME280;52491;45.900;6.346;2023-09-30T03:01:47;94599.53;;;27.05;36.80
65359;BME280;52491;45.900;6.346;2023-09-30T03:04:13;94605.72;;;27.06;36.88
65359;BME280;52491;45.900;6.346;2023-09-30T03:06:39;94606.53;;;27.06;36.91
65359;BME280;52491;45.900;6.346;2023-09-30T03:09:04;94606.53;;;27.06;36.96
65359;BME280;52491;45.900;6.346;2023-09-30T03:11:31;94595.81;;;27.06;36.94
65359;BME280;52491;45.900;6.346;2023-09-30T03:13:57;94591.50;;;27.05;37.00
65359;BME280;52491;45.900;6.346;2023-09-30T03:16:23;94588.84;;;27.05;36.83
65359;BME280;52491;45.900;6.346;2023-09-30T03:18:50;94595.00;;;27.06;36.87
65359;BME280;52491;45.900;6.346;2023-09-30T03:21:16;94589.91;;;27.04;36.77
65359;BME280;52491;45.900;6.346;2023-09-30T03:23:42;94584.81;;;27.02;36.83
65359;BME280;52491;45.900;6.346;2023-09-30T03:26:08;94584.81;;;27.02;36.94
65359;BME280;52491;45.900;6.346;2023-09-30T03:28:37;94589.94;;;27.09;36.75
65359;BME280;52491;45.900;6.346;2023-09-30T03:31:04;94591.00;;;27.13;36.68
65359;BME280;52491;45.900;6.346;2023-09-30T03:33:32;94586.78;;;27.17;36.60
65359;BME280;52491;45.900;6.346;2023-09-30T03:35:58;94588.03;;;27.05;36.77
65359;BME280;52491;45.900;6.346;2023-09-30T03:38:24;94590.22;;;27.13;36.81
65359;BME280;52491;45.900;6.346;2023-09-30T03:40:50;94586.78;;;27.17;36.53
65359;BME280;52491;45.900;6.346;2023-09-30T03:43:18;94583.03;;;27.18;36.56
65359;BME280;52491;45.900;6.346;2023-09-30T03:45:44;94581.09;;;27.14;36.80
65359;BME280;52491;45.900;6.346;2023-09-30T03:48:10;94587.59;;;27.18;36.55
65359;BME280;52491;45.900;6.346;2023-09-30T03:50:37;94587.59;;;27.18;36.63
65359;BME280;52491;45.900;6.346;2023-09-30T03:53:03;94587.59;;;27.18;36.76
65359;BME280;52491;45.900;6.346;2023-09-30T03:55:33;94595.63;;;27.18;36.51
65359;BME280;52491;45.900;6.346;2023-09-30T03:57:59;94592.94;;;27.18;36.66
65359;BME280;52491;45.900;6.346;2023-09-30T04:00:25;94595.84;;;27.16;36.43
65359;BME280;52491;45.900;6.346;2023-09-30T04:02:51;94586.19;;;27.15;36.65
65359;BME280;52491;45.900;6.346;2023-09-30T04:05:23;94590.50;;;27.16;36.76
65359;BME280;52491;45.900;6.346;2023-09-30T04:07:57;94588.88;;;27.15;36.68
65359;BME280;52491;45.900;6.346;2023-09-30T04:10:22;94584.34;;;27.16;36.68
65359;BME280;52491;45.900;6.346;2023-09-30T04:12:48;94572.81;;;27.15;36.71
65359;BME280;52491;45.900;6.346;2023-09-30T04:15:14;94576.28;;;27.06;36.74
65359;BME280;52491;45.900;6.346;2023-09-30T04:17:41;94570.63;;;27.02;36.72
65359;BME280;52491;45.900;6.346;2023-09-30T04:20:07;94575.75;;;27.14;36.40
65359;BME280;52491;45.900;6.346;2023-09-30T04:22:36;94573.06;;;27.04;36.76
65359;BME280;52491;45.900;6.346;2023-09-30T04:25:02;94567.16;;;27.01;36.62
65359;BME280;52491;45.900;6.346;2023-09-30T04:27:31;94572.28;;;27.13;36.38
65359;BME280;52491;45.900;6.346;2023-09-30T04:29:57;94574.69;;;27.15;36.23
65359;BME280;52491;45.900;6.346;2023-09-30T04:32:22;94575.72;;;27.04;36.50
65359;BME280;52491;45.900;6.346;2023-09-30T04:34:48;94577.84;;;27.01;36.79
65359;BME280;52491;45.900;6.346;2023-09-30T04:37:13;94577.09;;;27.06;36.37
65359;BME280;52491;45.900;6.346;2023-09-30T04:39:39;94590.44;;;27.01;36.58
65359;BME280;52491;45.900;6.346;2023-09-30T04:42:05;94580.25;;;26.98;36.72
65359;BME280;52491;45.900;6.346;2023-09-30T04:44:37;94596.31;;;26.98;36.89
65359;BME280;52491;45.900;6.346;2023-09-30T04:47:04;94590.97;;;26.98;36.80
65359;BME280;52491;45.900;6.346;2023-09-30T04:49:31;94581.31;;;26.97;36.98
65359;BME280;52491;45.900;6.346;2023-09-30T04:51:56;94586.66;;;26.97;36.95
65359;BME280;52491;45.900;6.346;2023-09-30T04:54:22;94585.13;;;27.11;36.63
65359;BME280;52491;45.900;6.346;2023-09-30T04:56:47;94588.59;;;27.12;36.59
65359;BME280;52491;45.900;6.346;2023-09-30T04:59:13;94579.50;;;27.13;36.33
65359;BME280;52491;45.900;6.346;2023-09-30T05:01:39;94584.84;;;27.13;36.40
65359;BME280;52491;45.900;6.346;2023-09-30T05:04:05;94587.22;;;27.04;36.51
65359;BME280;52491;45.900;6.346;2023-09-30T05:06:31;94581.34;;;27.07;36.53
65359;BME280;52491;45.900;6.346;2023-09-30T05:08:58;94580.56;;;27.12;36.54
65359;BME280;52491;45.900;6.346;2023-09-30T05:11:26;94590.22;;;27.13;36.66
65359;BME280;52491;45.900;6.346;2023-09-30T05:13:52;94585.13;;;27.11;36.60
65359;BME280;52491;45.900;6.346;2023-09-30T05:16:18;94591.81;;;27.14;36.44
65359;BME280;52491;45.900;6.346;2023-09-30T05:18:43;94599.03;;;27.13;36.39
65359;BME280;52491;45.900;6.346;2023-09-30T05:21:09;94600.91;;;27.13;36.41
65359;BME280;52491;45.900;6.346;2023-09-30T05:23:36;94600.91;;;27.13;36.59
65359;BME280;52491;45.900;6.346;2023-09-30T05:26:02;94610.81;;;27.12;36.53
65359;BME280;52491;45.900;6.346;2023-09-30T05:28:27;94605.47;;;27.12;36.64
65359;BME280;52491;45.900;6.346;2023-09-30T05:30:56;94608.16;;;27.12;36.62
65359;BME280;52491;45.900;6.346;2023-09-30T05:33:22;94610.03;;;27.12;36.56
65359;BME280;52491;45.900;6.346;2023-09-30T05:35:49;94617.25;;;27.11;36.42
65359;BME280;52491;45.900;6.346;2023-09-30T05:38:15;94616.41;;;27.11;36.42
65359;BME280;52491;45.900;6.346;2023-09-30T05:40:40;94627.97;;;27.11;36.58
65359;BME280;52491;45.900;6.346;2023-09-30T05:43:08;94636.78;;;27.12;36.45
65359;BME280;52491;45.900;6.346;2023-09-30T05:45:33;94644.03;;;27.11;36.37
65359;BME280;52491;45.900;6.346;2023-09-30T05:48:02;94637.31;;;27.09;36.47
65359;BME280;52491;45.900;6.346;2023-09-30T05:50:33;94633.56;;;27.10;36.45
65359;BME280;52491;45.900;6.346;2023-09-30T05:52:59;94639.69;;;27.05;36.64
65359;BME280;52491;45.900;6.346;2023-09-30T05:55:25;94634.59;;;27.04;37.21
65359;BME280;52491;45.900;6.346;2023-09-30T05:57:51;94636.22;;;27.05;36.69
65359;BME280;52491;45.900;6.346;2023-09-30T06:00:19;94645.31;;;27.04;36.71
65359;BME280;52491;45.900;6.346;2023-09-30T06:02:53;94644.75;;;27.01;36.70
65359;BME280;52491;45.900;6.346;2023-09-30T06:05:18;94651.72;;;27.02;36.79
65359;BME280;52491;45.900;6.346;2023-09-30T06:07:45;94649.03;;;27.02;36.56
65359;BME280;52491;45.900;6.346;2023-09-30T06:10:12;94654.38;;;27.02;36.95
65359;BME280;52491;45.900;6.346;2023-09-30T06:12:41;94656.81;;;27.04;36.99
65359;BME280;52491;45.900;6.346;2023-09-30T06:15:07;94649.88;;;27.03;36.88
65359;BME280;52491;45.900;6.346;2023-09-30T06:17:33;94644.50;;;27.03;36.65
65359;BME280;52491;45.900;6.346;2023-09-30T06:19:59;94644.25;;;27.05;36.82
65359;BME280;52491;45.900;6.346;2023-09-30T06:22:32;94641.84;;;27.03;36.82
65359;BME280;52491;45.900;6.346;2023-09-30T06:24:58;94642.63;;;27.04;36.60
65359;BME280;52491;45.900;6.346;2023-09-30T06:27:23;94642.88;;;27.02;36.96
65359;BME280;52491;45.900;6.346;2023-09-30T06:29:49;94644.50;;;27.03;36.98
65359;BME280;52491;45.900;6.346;2023-09-30T06:32:15;94647.19;;;27.03;36.93
65359;BME280;52491;45.900;6.346;2023-09-30T06:34:40;94641.00;;;27.02;36.74
65359;BME280;52491;45.900;6.346;2023-09-30T06:37:06;94641.56;;;27.05;36.89
65359;BME280;52491;45.900;6.346;2023-09-30T06:39:34;94639.69;;;27.05;36.76
65359;BME280;52491;45.900;6.346;2023-09-30T06:41:59;94637.28;;;27.04;37.22
65359;BME280;52491;45.900;6.346;2023-09-30T06:44:25;94648.53;;;27.06;37.05
65359;BME280;52491;45.900;6.346;2023-09-30T06:46:51;94653.63;;;27.07;37.35
65359;BME280;52491;45.900;6.346;2023-09-30T06:49:16;94650.94;;;27.07;37.45
65359;BME280;52491;45.900;6.346;2023-09-30T06:51:42;94657.09;;;27.08;37.34
65359;BME280;52491;45.900;6.346;2023-09-30T06:54:09;94657.09;;;27.08;37.13
65359;BME280;52491;45.900;6.346;2023-09-30T06:56:38;94663.53;;;27.07;37.18
65359;BME280;52491;45.900;6.346;2023-09-30T06:59:05;94662.44;;;27.08;37.12
65359;BME280;52491;45.900;6.346;2023-09-30T07:01:32;94662.19;;;27.09;37.07
65359;BME280;52491;45.900;6.346;2023-09-30T07:03:57;94672.91;;;27.09;37.42
65359;BME280;52491;45.900;6.346;2023-09-30T07:06:26;94669.94;;;27.11;37.51
65359;BME280;52491;45.900;6.346;2023-09-30T07:08:52;94672.09;;;27.09;37.57
65359;BME280;52491;45.900;6.346;2023-09-30T07:11:27;94673.16;;;27.08;37.50
65359;BME280;52491;45.900;6.346;2023-09-30T07:13:53;94672.81;;;26.89;37.85
65359;BME280;52491;45.900;6.346;2023-09-30T07:16:19;94677.81;;;26.80;37.94
65359;BME280;52491;45.900;6.346;2023-09-30T07:18:44;94681.56;;;26.79;38.01
65359;BME280;52491;45.900;6.346;2023-09-30T07:21:10;94687.44;;;26.76;38.23
65359;BME280;52491;45.900;6.346;2023-09-30T07:23:37;94690.09;;;26.76;38.26
65359;BME280;52491;45.900;6.346;2023-09-30T07:26:02;94688.22;;;26.76;38.12
65359;BME280;52491;45.900;6.346;2023-09-30T07:28:28;94693.34;;;26.78;38.25
65359;BME280;52491;45.900;6.346;2023-09-30T07:30:53;94691.19;;;26.80;38.16
65359;BME280;52491;45.900;6.346;2023-09-30T07:33:20;94690.38;;;26.79;37.85
65359;BME280;52491;45.900;6.346;2023-09-30T07:35:46;94697.66;;;26.84;37.83
65359;BME280;52491;45.900;6.346;2023-09-30T07:38:11;94684.28;;;26.84;38.03
65359;BME280;52491;45.900;6.346;2023-09-30T07:40:37;94686.34;;;26.77;38.40
65359;BME280;52491;45.900;6.346;2023-09-30T07:43:03;94684.75;;;26.76;38.37
65359;BME280;52491;45.900;6.346;2023-09-30T07:45:30;94683.69;;;26.77;38.23
65359;BME280;52491;45.900;6.346;2023-09-30T07:47:58;94693.88;;;26.80;38.45
65359;BME280;52491;45.900;6.346;2023-09-30T07:50:25;94677.81;;;26.80;38.50
65359;BME280;52491;45.900;6.346;2023-09-30T07:52:51;94678.88;;;26.79;38.00
65359;BME280;52491;45.900;6.346;2023-09-30T07:55:18;94688.50;;;26.80;38.18
65359;BME280;52491;45.900;6.346;2023-09-30T07:57:45;94688.50;;;26.80;38.35
65359;BME280;52491;45.900;6.346;2023-09-30T08:00:13;94675.97;;;26.81;38.41
65359;BME280;52491;45.900;6.346;2023-09-30T08:02:44;94679.44;;;26.81;38.43
65359;BME280;52491;45.900;6.346;2023-09-30T08:05:10;94668.75;;;26.81;38.06
65359;BME280;52491;45.900;6.346;2023-09-30T08:07:37;94669.00;;;26.79;38.29
65359;BME280;52491;45.900;6.346;2023-09-30T08:10:04;94668.47;;;26.83;38.44
65359;BME280;52491;45.900;6.346;2023-09-30T08:12:32;94667.69;;;26.87;38.02
65359;BME280;52491;45.900;6.346;2023-09-30T08:14:57;94667.69;;;26.87;38.25
65359;BME280;52491;45.900;6.346;2023-09-30T08:17:23;94665.03;;;26.87;38.26
65359;BME280;52491;45.900;6.346;2023-09-30T08:19:48;94666.91;;;26.87;38.10
65359;BME280;52491;45.900;6.346;2023-09-30T08:22:14;94678.41;;;26.87;38.11
65359;BME280;52491;45.900;6.346;2023-09-30T08:24:43;94670.38;;;26.87;37.92
65359;BME280;52491;45.900;6.346;2023-09-30T08:27:15;94673.06;;;26.87;37.66
65359;BME280;52491;45.900;6.346;2023-09-30T08:29:42;94678.13;;;26.84;37.90
65359;BME280;52491;45.900;6.346;2023-09-30T08:32:10;94670.91;;;26.84;37.63
65359;BME280;52491;45.900;6.346;2023-09-30T08:34:36;94665.28;;;26.86;37.78
65359;BME280;52491;45.900;6.346;2023-09-30T08:37:03;94672.25;;;26.87;37.66
65359;BME280;52491;45.900;6.346;2023-09-30T08:39:30;94674.66;;;26.88;37.93
65359;BME280;52491;45.900;6.346;2023-09-30T08:41:56;94675.22;;;26.90;37.83
65359;BME280;52491;45.900;6.346;2023-09-30T08:44:24;94666.09;;;26.91;37.50
65359;BME280;52491;45.900;6.346;2023-09-30T08:46:52;94662.38;;;26.92;37.93
65359;BME280;52491;45.900;6.346;2023-09-30T08:49:19;94668.28;;;26.94;37.30
65359;BME280;52491;45.900;6.346;2023-09-30T08:51:48;94667.47;;;26.94;37.64
65359;BME280;52491;45.900;6.346;2023-09-30T08:54:14;94662.94;;;26.94;37.48
65359;BME280;52491;45.900;6.346;2023-09-30T08:56:40;94676.00;;;26.91;37.83
65359;BME280;52491;45.900;6.346;2023-09-30T08:59:11;94674.94;;;26.87;37.79
65359;BME280;52491;45.900;6.346;2023-09-30T09:01:37;94674.94;;;26.87;37.43
65359;BME280;52491;45.900;6.346;2023-09-30T09:04:03;94672.25;;;26.87;37.97
65359;BME280;52491;45.900;6.346;2023-09-30T09:06:30;94669.81;;;26.85;37.73
65359;BME280;52491;45.900;6.346;2023-09-30T09:09:13;94678.13;;;26.84;38.09
65359;BME280;52491;45.900;6.346;2023-09-30T09:11:39;94678.66;;;26.81;38.01
65359;BME280;52491;45.900;6.346;2023-09-30T09:14:04;94669.00;;;26.79;37.57
65359;BME280;52491;45.900;6.346;2023-09-30T09:16:30;94670.88;;;26.79;37.61
65359;BME280;52491;45.900;6.346;2023-09-30T09:18:56;94668.75;;;26.81;37.49
65359;BME280;52491;45.900;6.346;2023-09-30T09:21:22;94666.84;;;26.76;37.46
65359;BME280;52491;45.900;6.346;2023-09-30T09:23:56;94659.56;;;26.72;37.56
65359;BME280;52491;45.900;6.346;2023-09-30T09:26:28;94657.41;;;26.69;37.21
65359;BME280;52491;45.900;6.346;2023-09-30T09:28:59;94657.94;;;26.66;37.55
65359;BME280;52491;45.900;6.346;2023-09-30T09:31:35;94662.75;;;26.64;37.21
65359;BME280;52491;45.900;6.346;2023-09-30T09:34:12;94671.25;;;26.61;37.07
65359;BME280;52491;45.900;6.346;2023-09-30T09:36:43;94668.88;;;26.59;37.17
65359;BME280;52491;45.900;6.346;2023-09-30T09:39:10;94654.13;;;26.56;36.79
65359;BME280;52491;45.900;6.346;2023-09-30T09:41:52;94660.81;;;26.54;37.05
65359;BME280;52491;45.900;6.346;2023-09-30T09:44:20;94658.66;;;26.51;36.90
65359;BME280;52491;45.900;6.346;2023-09-30T09:46:47;94657.00;;;26.50;37.34
65359;BME280;52491;45.900;6.346;2023-09-30T09:49:16;94647.16;;;26.50;37.25
65359;BME280;52491;45.900;6.346;2023-09-30T09:51:49;94649.31;;;26.53;37.17
65359;BME280;52491;45.900;6.346;2023-09-30T09:54:16;94645.84;;;26.53;37.34
65359;BME280;52491;45.900;6.346;2023-09-30T09:56:44;94647.19;;;26.55;37.39
65359;BME280;52491;45.900;6.346;2023-09-30T09:59:12;94648.00;;;26.56;37.28
65359;BME280;52491;45.900;6.346;2023-09-30T10:01:40;94652.53;;;26.55;37.06
65359;BME280;52491;45.900;6.346;2023-09-30T10:04:06;94644.47;;;26.50;36.91
65359;BME280;52491;45.900;6.346;2023-09-30T10:06:34;94640.97;;;26.50;37.39
65359;BME280;52491;45.900;6.346;2023-09-30T10:09:09;94646.91;;;26.57;37.00
65359;BME280;52491;45.900;6.346;2023-09-30T10:11:38;94640.81;;;26.62;36.88
65359;BME280;52491;45.900;6.346;2023-09-30T10:14:05;94646.19;;;26.67;36.55
65359;BME280;52491;45.900;6.346;2023-09-30T10:19:13;94637.66;;;26.70;36.77
65359;BME280;52491;45.900;6.346;2023-09-30T10:22:19;94637.94;;;26.73;36.62
65359;BME280;52491;45.900;6.346;2023-09-30T10:30:19;94630.72;;;26.79;36.90
65359;BME280;52491;45.900;6.346;2023-09-30T10:35:21;94616.31;;;26.85;36.69
65359;BME280;52491;45.900;6.346;2023-09-30T10:37:47;94613.63;;;26.85;36.63
65359;BME280;52491;45.900;6.346;2023-09-30T10:40:27;94614.19;;;26.87;36.85
65359;BME280;52491;45.900;6.346;2023-09-30T10:42:53;94604.78;;;26.79;37.02
65359;BME280;52491;45.900;6.346;2023-09-30T10:50:55;94602.41;;;26.83;36.75
65359;BME280;52491;45.900;6.346;2023-09-30T10:53:24;94598.66;;;26.84;36.45
65359;BME280;52491;45.900;6.346;2023-09-30T10:56:00;94594.66;;;26.87;36.92
65359;BME280;52491;45.900;6.346;2023-09-30T10:58:59;94598.94;;;26.88;36.68
65359;BME280;52491;45.900;6.346;2023-09-30T11:01:32;94602.41;;;26.83;37.17
65359;BME280;52491;45.900;6.346;2023-09-30T11:04:01;94601.84;;;26.81;37.07
65359;BME280;52491;45.900;6.346;2023-09-30T11:06:31;94602.63;;;26.76;37.44
65359;BME280;52491;45.900;6.346;2023-09-30T11:08:59;94597.56;;;26.75;37.03
65359;BME280;52491;45.900;6.346;2023-09-30T11:11:39;94602.91;;;26.75;37.30
65359;BME280;52491;45.900;6.346;2023-09-30T11:14:31;94600.72;;;26.72;37.36
65359;BME280;52491;45.900;6.346;2023-09-30T11:16:59;94596.16;;;26.67;37.83
65359;BME280;52491;45.900;6.346;2023-09-30T11:19:32;94592.16;;;26.70;37.34
65359;BME280;52491;45.900;6.346;2023-09-30T11:21:59;94583.34;;;26.74;37.55
65359;BME280;52491;45.900;6.346;2023-09-30T11:24:24;94590.59;;;26.79;37.41
65359;BME280;52491;45.900;6.346;2023-09-30T11:26:53;94585.81;;;26.81;37.20
65359;BME280;52491;45.900;6.346;2023-09-30T11:29:20;94586.34;;;26.83;37.21
65359;BME280;52491;45.900;6.346;2023-09-30T11:31:47;94579.13;;;26.84;37.44
65359;BME280;52491;45.900;6.346;2023-09-30T11:34:16;94576.19;;;26.85;37.27
65359;BME280;52491;45.900;6.346;2023-09-30T11:37:00;94569.25;;;26.89;37.50
65359;BME280;52491;45.900;6.346;2023-09-30T11:39:28;94561.75;;;26.91;37.49
65359;BME280;52491;45.900;6.346;2023-09-30T11:41:55;94559.63;;;26.93;37.47
65359;BME280;52491;45.900;6.346;2023-09-30T11:44:25;94556.94;;;26.93;37.04
65359;BME280;52491;45.900;6.346;2023-09-30T11:46:58;94556.69;;;26.95;37.13
65359;BME280;52491;45.900;6.346;2023-09-30T11:49:32;94545.72;;;26.96;37.14
65359;BME280;52491;45.900;6.346;2023-09-30T11:52:01;94550.81;;;26.98;37.41
65359;BME280;52491;45.900;6.346;2023-09-30T11:56:57;94544.16;;;27.00;36.99
65359;BME280;52491;45.900;6.346;2023-09-30T11:59:24;94541.19;;;27.02;37.23
65359;BME280;52491;45.900;6.346;2023-09-30T12:01:50;94552.44;;;27.04;37.28
65359;BME280;52491;45.900;6.346;2023-09-30T12:04:18;94546.84;;;27.06;36.99
65359;BME280;52491;45.900;6.346;2023-09-30T12:06:45;94544.16;;;27.06;37.10
65359;BME280;52491;45.900;6.346;2023-09-30T12:09:15;94545.75;;;27.07;37.25
65359;BME280;52491;45.900;6.346;2023-09-30T12:11:42;94541.75;;;27.09;37.17
65359;BME280;52491;45.900;6.346;2023-09-30T12:14:10;94539.88;;;27.10;37.23
65359;BME280;52491;45.900;6.346;2023-09-30T12:16:36;94536.69;;;27.13;37.27
65359;BME280;52491;45.900;6.346;2023-09-30T12:19:02;94536.69;;;27.13;36.92
65359;BME280;52491;45.900;6.346;2023-09-30T12:21:28;94526.75;;;27.13;36.88
65359;BME280;52491;45.900;6.346;2023-09-30T12:23:54;94532.91;;;27.14;37.18
65359;BME280;52491;45.900;6.346;2023-09-30T12:26:19;94534.78;;;27.13;37.29
65359;BME280;52491;45.900;6.346;2023-09-30T12:28:46;94536.19;;;27.16;37.23
65359;BME280;52491;45.900;6.346;2023-09-30T12:31:12;94527.09;;;27.17;37.34
65359;BME280;52491;45.900;6.346;2023-09-30T12:33:39;94526.81;;;27.18;37.44
65359;BME280;52491;45.900;6.346;2023-09-30T12:36:05;94524.94;;;27.19;37.44
65359;BME280;52491;45.900;6.346;2023-09-30T12:38:31;94523.88;;;27.20;37.54
65359;BME280;52491;45.900;6.346;2023-09-30T12:40:56;94522.56;;;27.22;37.37
65359;BME280;52491;45.900;6.346;2023-09-30T12:43:23;94518.25;;;27.21;37.71
65359;BME280;52491;45.900;6.346;2023-09-30T12:45:50;94533.25;;;27.22;37.83
65359;BME280;52491;45.900;6.346;2023-09-30T12:48:16;94521.47;;;27.23;37.66
65359;BME280;52491;45.900;6.346;2023-09-30T12:50:43;94516.91;;;27.24;37.62
65359;BME280;52491;45.900;6.346;2023-09-30T12:53:13;94526.53;;;27.25;37.97
65359;BME280;52491;45.900;6.346;2023-09-30T12:55:41;94521.75;;;27.27;37.66
65359;BME280;52491;45.900;6.346;2023-09-30T12:58:07;94517.19;;;27.28;37.94
65359;BME280;52491;45.900;6.346;2023-09-30T13:00:33;94512.91;;;27.27;38.08
65359;BME280;52491;45.900;6.346;2023-09-30T13:03:01;94511.59;;;27.29;37.93
65359;BME280;52491;45.900;6.346;2023-09-30T13:05:28;94510.50;;;27.30;37.87
65359;BME280;52491;45.900;6.346;2023-09-30T13:07:55;94515.31;;;27.33;37.93
65359;BME280;52491;45.900;6.346;2023-09-30T13:10:21;94507.28;;;27.33;38.23
65359;BME280;52491;45.900;6.346;2023-09-30T13:12:48;94502.75;;;27.34;37.79
65359;BME280;52491;45.900;6.346;2023-09-30T13:15:19;94503.56;;;27.34;37.98
65359;BME280;52491;45.900;6.346;2023-09-30T13:17:45;94501.44;;;27.36;38.00
65359;BME280;52491;45.900;6.346;2023-09-30T13:20:11;94501.44;;;27.36;38.00